sensor_id;sensor_type;location;lat;lon;timestamp;P1;durP1;ratioP1;P2;durP2;ratioP2
61806;SDS011;47726;52.766;6.606;2022-12-26T00:01:50;25.98;;;17.17;;
61806;SDS011;47726;52.766;6.606;2022-12-26T00:04:17;24.98;;;16.75;;
61806;SDS011;47726;52.766;6.606;2022-12-26T00:06:44;24.85;;;17.17;;
61806;SDS011;47726;52.766;6.606;2022-12-26T00:09:09;23.50;;;17.08;;
61806;SDS011;47726;52.766;6.606;2022-12-26T00:11:36;24.42;;;17.30;;
61806;SDS011;47726;52.766;6.606;2022-12-26T00:14:07;23.88;;;16.95;;
61806;SDS011;47726;52.766;6.606;2022-12-26T00:16:35;22.30;;;16.27;;
61806;SDS011;47726;52.766;6.606;2022-12-26T00:19:01;21.00;;;15.52;;
61806;SDS011;47726;52.766;6.606;2022-12-26T00:21:27;23.58;;;16.60;;
61806;SDS011;47726;52.766;6.606;2022-12-26T00:23:54;23.75;;;16.60;;
61806;SDS011;47726;52.766;6.606;2022-12-26T00:26:21;21.05;;;14.82;;
61806;SDS011;47726;52.766;6.606;2022-12-26T00:28:48;24.00;;;15.18;;
61806;SDS011;47726;52.766;6.606;2022-12-26T00:31:18;21.85;;;15.68;;
61806;SDS011;47726;52.766;6.606;2022-12-26T00:33:46;21.30;;;15.20;;
61806;SDS011;47726;52.766;6.606;2022-12-26T00:36:13;20.88;;;14.65;;
61806;SDS011;47726;52.766;6.606;2022-12-26T00:38:44;19.95;;;14.23;;
61806;SDS011;47726;52.766;6.606;2022-12-26T00:41:10;19.83;;;13.82;;
61806;SDS011;47726;52.766;6.606;2022-12-26T00:43:37;20.17;;;14.65;;
61806;SDS011;47726;52.766;6.606;2022-12-26T00:46:03;20.65;;;14.30;;
61806;SDS011;47726;52.766;6.606;2022-12-26T00:48:30;19.23;;;14.20;;
61806;SDS011;47726;52.766;6.606;2022-12-26T00:50:56;18.77;;;13.68;;
61806;SDS011;47726;52.766;6.606;2022-12-26T00:53:23;17.30;;;12.60;;
61806;SDS011;47726;52.766;6.606;2022-12-26T00:55:49;19.25;;;13.48;;
61806;SDS011;47726;52.766;6.606;2022-12-26T00:58:16;17.95;;;12.80;;
61806;SDS011;47726;52.766;6.606;2022-12-26T01:00:42;19.08;;;12.70;;
61806;SDS011;47726;52.766;6.606;2022-12-26T01:03:08;17.70;;;12.90;;
61806;SDS011;47726;52.766;6.606;2022-12-26T01:05:39;17.80;;;13.02;;
61806;SDS011;47726;52.766;6.606;2022-12-26T01:08:06;17.75;;;12.18;;
61806;SDS011;47726;52.766;6.606;2022-12-26T01:10:31;18.27;;;12.95;;
61806;SDS011;47726;52.766;6.606;2022-12-26T01:12:57;18.10;;;12.45;;
61806;SDS011;47726;52.766;6.606;2022-12-26T01:15:22;16.92;;;12.07;;
61806;SDS011;47726;52.766;6.606;2022-12-26T01:17:48;18.45;;;12.45;;
61806;SDS011;47726;52.766;6.606;2022-12-26T01:20:14;18.17;;;13.07;;
61806;SDS011;47726;52.766;6.606;2022-12-26T01:22:39;18.15;;;12.63;;
61806;SDS011;47726;52.766;6.606;2022-12-26T01:25:05;17.30;;;11.95;;
61806;SDS011;47726;52.766;6.606;2022-12-26T01:27:31;17.90;;;12.02;;
61806;SDS011;47726;52.766;6.606;2022-12-26T01:29:57;18.70;;;12.15;;
61806;SDS011;47726;52.766;6.606;2022-12-26T01:32:23;18.90;;;12.10;;
61806;SDS011;47726;52.766;6.606;2022-12-26T01:34:48;17.90;;;12.00;;
61806;SDS011;47726;52.766;6.606;2022-12-26T01:37:16;16.58;;;11.35;;
61806;SDS011;47726;52.766;6.606;2022-12-26T01:39:41;18.35;;;12.38;;
61806;SDS011;47726;52.766;6.606;2022-12-26T01:42:10;18.48;;;11.77;;
61806;SDS011;47726;52.766;6.606;2022-12-26T01:49:59;20.05;;;11.88;;
61806;SDS011;47726;52.766;6.606;2022-12-26T01:52:28;18.65;;;11.65;;
61806;SDS011;47726;52.766;6.606;2022-12-26T01:55:00;19.98;;;13.07;;
61806;SDS011;47726;52.766;6.606;2022-12-26T01:57:28;19.42;;;12.63;;
61806;SDS011;47726;52.766;6.606;2022-12-26T01:59:59;19.40;;;13.00;;
61806;SDS011;47726;52.766;6.606;2022-12-26T02:02:26;19.52;;;13.18;;
61806;SDS011;47726;52.766;6.606;2022-12-26T02:04:54;20.63;;;14.07;;
61806;SDS011;47726;52.766;6.606;2022-12-26T02:07:41;21.33;;;13.55;;
61806;SDS011;47726;52.766;6.606;2022-12-26T02:10:16;19.85;;;14.93;;
61806;SDS011;47726;52.766;6.606;2022-12-26T02:12:47;21.48;;;15.38;;
61806;SDS011;47726;52.766;6.606;2022-12-26T02:15:15;21.45;;;15.48;;
61806;SDS011;47726;52.766;6.606;2022-12-26T02:17:41;22.88;;;16.42;;
61806;SDS011;47726;52.766;6.606;2022-12-26T02:31:35;21.67;;;17.40;;
61806;SDS011;47726;52.766;6.606;2022-12-26T02:37:10;22.20;;;16.92;;
61806;SDS011;47726;52.766;6.606;2022-12-26T02:45:46;22.08;;;16.98;;
61806;SDS011;47726;52.766;6.606;2022-12-26T02:51:28;22.95;;;17.45;;
61806;SDS011;47726;52.766;6.606;2022-12-26T02:54:35;23.58;;;17.17;;
61806;SDS011;47726;52.766;6.606;2022-12-26T02:57:30;24.15;;;17.67;;
61806;SDS011;47726;52.766;6.606;2022-12-26T03:00:24;23.92;;;17.25;;
61806;SDS011;47726;52.766;6.606;2022-12-26T03:03:16;24.67;;;18.60;;
61806;SDS011;47726;52.766;6.606;2022-12-26T03:06:06;26.70;;;18.98;;
61806;SDS011;47726;52.766;6.606;2022-12-26T03:08:59;27.15;;;19.05;;
61806;SDS011;47726;52.766;6.606;2022-12-26T03:11:45;23.83;;;18.10;;
61806;SDS011;47726;52.766;6.606;2022-12-26T03:14:41;28.05;;;19.25;;
61806;SDS011;47726;52.766;6.606;2022-12-26T03:17:24;26.63;;;19.20;;
61806;SDS011;47726;52.766;6.606;2022-12-26T03:19:58;28.67;;;20.17;;
61806;SDS011;47726;52.766;6.606;2022-12-26T03:28:18;27.73;;;20.35;;
61806;SDS011;47726;52.766;6.606;2022-12-26T03:30:45;27.65;;;20.80;;
61806;SDS011;47726;52.766;6.606;2022-12-26T03:33:18;30.38;;;21.75;;
61806;SDS011;47726;52.766;6.606;2022-12-26T03:36:06;28.65;;;21.25;;
61806;SDS011;47726;52.766;6.606;2022-12-26T03:41:40;31.17;;;22.02;;
61806;SDS011;47726;52.766;6.606;2022-12-26T03:51:07;28.88;;;20.40;;
61806;SDS011;47726;52.766;6.606;2022-12-26T03:54:04;31.15;;;21.83;;
61806;SDS011;47726;52.766;6.606;2022-12-26T03:56:59;30.20;;;21.05;;
61806;SDS011;47726;52.766;6.606;2022-12-26T03:59:52;30.75;;;22.00;;
61806;SDS011;47726;52.766;6.606;2022-12-26T04:02:45;33.13;;;22.05;;
61806;SDS011;47726;52.766;6.606;2022-12-26T04:05:32;32.47;;;22.17;;
61806;SDS011;47726;52.766;6.606;2022-12-26T04:08:21;29.95;;;21.23;;
61806;SDS011;47726;52.766;6.606;2022-12-26T04:11:11;31.80;;;21.75;;
61806;SDS011;47726;52.766;6.606;2022-12-26T04:14:02;30.73;;;21.27;;
61806;SDS011;47726;52.766;6.606;2022-12-26T04:17:01;30.40;;;21.30;;
61806;SDS011;47726;52.766;6.606;2022-12-26T04:22:48;29.10;;;21.90;;
61806;SDS011;47726;52.766;6.606;2022-12-26T04:25:37;31.88;;;22.00;;
61806;SDS011;47726;52.766;6.606;2022-12-26T04:28:35;32.33;;;22.02;;
61806;SDS011;47726;52.766;6.606;2022-12-26T04:34:29;30.70;;;21.45;;
61806;SDS011;47726;52.766;6.606;2022-12-26T04:37:22;29.10;;;19.73;;
61806;SDS011;47726;52.766;6.606;2022-12-26T04:40:10;31.48;;;21.48;;
61806;SDS011;47726;52.766;6.606;2022-12-26T04:43:05;29.05;;;20.65;;
61806;SDS011;47726;52.766;6.606;2022-12-26T04:45:51;29.27;;;20.20;;
61806;SDS011;47726;52.766;6.606;2022-12-26T04:48:18;29.05;;;20.10;;
61806;SDS011;47726;52.766;6.606;2022-12-26T04:51:02;30.00;;;20.67;;
61806;SDS011;47726;52.766;6.606;2022-12-26T04:53:28;32.17;;;20.60;;
61806;SDS011;47726;52.766;6.606;2022-12-26T04:55:54;29.02;;;20.10;;
61806;SDS011;47726;52.766;6.606;2022-12-26T04:58:19;29.83;;;20.52;;
61806;SDS011;47726;52.766;6.606;2022-12-26T05:00:48;30.13;;;20.83;;
61806;SDS011;47726;52.766;6.606;2022-12-26T05:03:14;30.00;;;20.65;;
61806;SDS011;47726;52.766;6.606;2022-12-26T05:05:58;31.70;;;21.08;;
61806;SDS011;47726;52.766;6.606;2022-12-26T05:08:43;30.45;;;21.13;;
61806;SDS011;47726;52.766;6.606;2022-12-26T05:11:29;30.45;;;21.38;;
61806;SDS011;47726;52.766;6.606;2022-12-26T05:13:57;34.50;;;22.23;;
61806;SDS011;47726;52.766;6.606;2022-12-26T05:16:24;35.20;;;23.33;;
61806;SDS011;47726;52.766;6.606;2022-12-26T05:19:10;34.63;;;22.83;;
61806;SDS011;47726;52.766;6.606;2022-12-26T05:21:58;34.97;;;23.48;;
61806;SDS011;47726;52.766;6.606;2022-12-26T05:24:44;34.30;;;22.42;;
61806;SDS011;47726;52.766;6.606;2022-12-26T05:27:33;34.22;;;22.95;;
61806;SDS011;47726;52.766;6.606;2022-12-26T05:30:20;35.00;;;22.77;;
61806;SDS011;47726;52.766;6.606;2022-12-26T05:32:46;34.38;;;23.48;;
61806;SDS011;47726;52.766;6.606;2022-12-26T05:35:31;32.53;;;22.95;;
61806;SDS011;47726;52.766;6.606;2022-12-26T05:37:57;32.42;;;22.92;;
61806;SDS011;47726;52.766;6.606;2022-12-26T05:40:23;35.15;;;23.15;;
61806;SDS011;47726;52.766;6.606;2022-12-26T05:42:48;34.50;;;23.05;;
61806;SDS011;47726;52.766;6.606;2022-12-26T05:45:14;35.08;;;24.20;;
61806;SDS011;47726;52.766;6.606;2022-12-26T05:47:40;35.30;;;23.45;;
61806;SDS011;47726;52.766;6.606;2022-12-26T05:50:05;33.20;;;23.42;;
61806;SDS011;47726;52.766;6.606;2022-12-26T05:52:31;34.10;;;23.30;;
61806;SDS011;47726;52.766;6.606;2022-12-26T05:54:57;34.13;;;24.23;;
61806;SDS011;47726;52.766;6.606;2022-12-26T05:57:23;34.78;;;23.38;;
61806;SDS011;47726;52.766;6.606;2022-12-26T05:59:48;34.80;;;23.67;;
61806;SDS011;47726;52.766;6.606;2022-12-26T06:02:14;35.78;;;23.48;;
61806;SDS011;47726;52.766;6.606;2022-12-26T06:04:39;34.95;;;23.85;;
61806;SDS011;47726;52.766;6.606;2022-12-26T06:07:05;33.63;;;23.25;;
61806;SDS011;47726;52.766;6.606;2022-12-26T06:09:31;34.22;;;23.45;;
61806;SDS011;47726;52.766;6.606;2022-12-26T06:11:56;31.98;;;23.17;;
61806;SDS011;47726;52.766;6.606;2022-12-26T06:14:22;33.53;;;23.40;;
61806;SDS011;47726;52.766;6.606;2022-12-26T06:16:48;34.17;;;23.33;;
61806;SDS011;47726;52.766;6.606;2022-12-26T06:19:14;33.45;;;23.73;;
61806;SDS011;47726;52.766;6.606;2022-12-26T06:21:40;29.63;;;21.85;;
61806;SDS011;47726;52.766;6.606;2022-12-26T06:24:06;33.10;;;23.05;;
61806;SDS011;47726;52.766;6.606;2022-12-26T06:26:31;29.98;;;20.88;;
61806;SDS011;47726;52.766;6.606;2022-12-26T06:28:57;29.40;;;21.73;;
61806;SDS011;47726;52.766;6.606;2022-12-26T06:31:23;28.05;;;20.52;;
61806;SDS011;47726;52.766;6.606;2022-12-26T06:33:49;29.75;;;20.15;;
61806;SDS011;47726;52.766;6.606;2022-12-26T06:36:19;28.73;;;20.88;;
61806;SDS011;47726;52.766;6.606;2022-12-26T06:38:46;28.58;;;20.65;;
61806;SDS011;47726;52.766;6.606;2022-12-26T06:41:13;27.95;;;20.85;;
61806;SDS011;47726;52.766;6.606;2022-12-26T06:43:41;29.35;;;19.85;;
61806;SDS011;47726;52.766;6.606;2022-12-26T06:46:09;27.48;;;19.52;;
61806;SDS011;47726;52.766;6.606;2022-12-26T06:48:37;28.42;;;19.92;;
61806;SDS011;47726;52.766;6.606;2022-12-26T06:51:06;25.50;;;19.38;;
61806;SDS011;47726;52.766;6.606;2022-12-26T06:53:36;25.92;;;18.48;;
61806;SDS011;47726;52.766;6.606;2022-12-26T06:56:09;26.35;;;18.85;;
61806;SDS011;47726;52.766;6.606;2022-12-26T06:58:43;28.02;;;19.95;;
61806;SDS011;47726;52.766;6.606;2022-12-26T07:01:10;26.38;;;19.27;;
61806;SDS011;47726;52.766;6.606;2022-12-26T07:03:38;26.10;;;19.30;;
61806;SDS011;47726;52.766;6.606;2022-12-26T07:06:05;28.58;;;20.02;;
61806;SDS011;47726;52.766;6.606;2022-12-26T07:08:34;25.67;;;19.45;;
61806;SDS011;47726;52.766;6.606;2022-12-26T07:11:00;25.42;;;19.23;;
61806;SDS011;47726;52.766;6.606;2022-12-26T07:13:25;24.45;;;19.40;;
61806;SDS011;47726;52.766;6.606;2022-12-26T07:15:51;26.60;;;19.13;;
61806;SDS011;47726;52.766;6.606;2022-12-26T07:18:17;26.40;;;19.27;;
61806;SDS011;47726;52.766;6.606;2022-12-26T07:20:43;26.33;;;20.25;;
61806;SDS011;47726;52.766;6.606;2022-12-26T07:23:09;27.88;;;20.00;;
61806;SDS011;47726;52.766;6.606;2022-12-26T07:25:36;27.23;;;20.45;;
61806;SDS011;47726;52.766;6.606;2022-12-26T07:28:02;27.55;;;20.23;;
61806;SDS011;47726;52.766;6.606;2022-12-26T07:30:28;27.02;;;20.98;;
61806;SDS011;47726;52.766;6.606;2022-12-26T07:32:53;30.33;;;20.90;;
61806;SDS011;47726;52.766;6.606;2022-12-26T07:35:19;27.98;;;20.88;;
61806;SDS011;47726;52.766;6.606;2022-12-26T07:37:45;28.67;;;21.10;;
61806;SDS011;47726;52.766;6.606;2022-12-26T07:40:10;27.20;;;20.80;;
61806;SDS011;47726;52.766;6.606;2022-12-26T07:42:36;29.73;;;21.08;;
61806;SDS011;47726;52.766;6.606;2022-12-26T07:45:02;28.23;;;21.27;;
61806;SDS011;47726;52.766;6.606;2022-12-26T07:47:28;28.77;;;20.80;;
61806;SDS011;47726;52.766;6.606;2022-12-26T07:49:54;26.27;;;20.50;;
61806;SDS011;47726;52.766;6.606;2022-12-26T07:52:19;29.45;;;19.58;;
61806;SDS011;47726;52.766;6.606;2022-12-26T07:54:48;27.73;;;20.23;;
61806;SDS011;47726;52.766;6.606;2022-12-26T07:57:14;26.88;;;20.27;;
61806;SDS011;47726;52.766;6.606;2022-12-26T07:59:39;28.75;;;19.95;;
61806;SDS011;47726;52.766;6.606;2022-12-26T08:02:05;27.83;;;20.40;;
61806;SDS011;47726;52.766;6.606;2022-12-26T08:04:32;27.55;;;20.13;;
61806;SDS011;47726;52.766;6.606;2022-12-26T08:06:58;28.45;;;19.00;;
61806;SDS011;47726;52.766;6.606;2022-12-26T08:09:24;23.52;;;18.58;;
61806;SDS011;47726;52.766;6.606;2022-12-26T08:11:49;27.80;;;18.23;;
61806;SDS011;47726;52.766;6.606;2022-12-26T08:14:15;24.85;;;17.85;;
61806;SDS011;47726;52.766;6.606;2022-12-26T08:16:41;25.65;;;18.38;;
61806;SDS011;47726;52.766;6.606;2022-12-26T08:19:07;24.48;;;17.73;;
61806;SDS011;47726;52.766;6.606;2022-12-26T08:21:36;21.63;;;16.45;;
61806;SDS011;47726;52.766;6.606;2022-12-26T08:24:02;21.50;;;16.38;;
61806;SDS011;47726;52.766;6.606;2022-12-26T08:26:28;21.85;;;16.48;;
61806;SDS011;47726;52.766;6.606;2022-12-26T08:28:54;21.35;;;16.40;;
61806;SDS011;47726;52.766;6.606;2022-12-26T08:31:20;19.98;;;15.43;;
61806;SDS011;47726;52.766;6.606;2022-12-26T08:33:46;20.60;;;15.25;;
61806;SDS011;47726;52.766;6.606;2022-12-26T08:36:12;21.40;;;15.55;;
61806;SDS011;47726;52.766;6.606;2022-12-26T08:38:41;21.45;;;14.50;;
61806;SDS011;47726;52.766;6.606;2022-12-26T08:41:07;21.88;;;13.85;;
61806;SDS011;47726;52.766;6.606;2022-12-26T08:43:33;20.65;;;13.20;;
61806;SDS011;47726;52.766;6.606;2022-12-26T08:45:59;19.38;;;12.50;;
61806;SDS011;47726;52.766;6.606;2022-12-26T08:48:30;18.05;;;12.75;;
61806;SDS011;47726;52.766;6.606;2022-12-26T08:50:57;16.05;;;11.95;;
61806;SDS011;47726;52.766;6.606;2022-12-26T08:53:24;20.08;;;12.10;;
61806;SDS011;47726;52.766;6.606;2022-12-26T08:55:50;15.93;;;11.93;;
61806;SDS011;47726;52.766;6.606;2022-12-26T08:58:16;19.02;;;11.32;;
61806;SDS011;47726;52.766;6.606;2022-12-26T09:00:42;17.80;;;11.60;;
61806;SDS011;47726;52.766;6.606;2022-12-26T09:03:10;17.20;;;11.82;;
61806;SDS011;47726;52.766;6.606;2022-12-26T09:05:36;15.43;;;11.23;;
61806;SDS011;47726;52.766;6.606;2022-12-26T09:08:05;15.18;;;10.60;;
61806;SDS011;47726;52.766;6.606;2022-12-26T09:10:31;17.10;;;10.43;;
61806;SDS011;47726;52.766;6.606;2022-12-26T09:12:57;17.98;;;10.18;;
61806;SDS011;47726;52.766;6.606;2022-12-26T09:15:22;15.05;;;9.15;;
61806;SDS011;47726;52.766;6.606;2022-12-26T09:17:48;11.70;;;8.68;;
61806;SDS011;47726;52.766;6.606;2022-12-26T09:20:14;13.13;;;9.15;;
61806;SDS011;47726;52.766;6.606;2022-12-26T09:22:39;18.05;;;9.18;;
61806;SDS011;47726;52.766;6.606;2022-12-26T09:25:18;12.38;;;8.85;;
61806;SDS011;47726;52.766;6.606;2022-12-26T09:27:46;14.88;;;8.75;;
61806;SDS011;47726;52.766;6.606;2022-12-26T09:30:13;17.58;;;9.35;;
61806;SDS011;47726;52.766;6.606;2022-12-26T09:32:39;15.18;;;8.68;;
61806;SDS011;47726;52.766;6.606;2022-12-26T09:35:05;14.95;;;8.25;;
61806;SDS011;47726;52.766;6.606;2022-12-26T09:37:32;13.02;;;8.30;;
61806;SDS011;47726;52.766;6.606;2022-12-26T09:39:57;14.77;;;8.27;;
61806;SDS011;47726;52.766;6.606;2022-12-26T09:48:14;12.43;;;6.53;;
61806;SDS011;47726;52.766;6.606;2022-12-26T09:50:57;11.55;;;6.65;;
61806;SDS011;47726;52.766;6.606;2022-12-26T09:55:55;9.13;;;6.07;;
61806;SDS011;47726;52.766;6.606;2022-12-26T09:58:25;9.23;;;5.68;;
61806;SDS011;47726;52.766;6.606;2022-12-26T10:01:13;12.50;;;5.50;;
61806;SDS011;47726;52.766;6.606;2022-12-26T10:03:48;10.75;;;5.75;;
61806;SDS011;47726;52.766;6.606;2022-12-26T10:14:10;12.00;;;5.10;;
61806;SDS011;47726;52.766;6.606;2022-12-26T10:25:17;13.70;;;3.15;;
61806;SDS011;47726;52.766;6.606;2022-12-26T10:27:50;13.93;;;3.38;;
61806;SDS011;47726;52.766;6.606;2022-12-26T10:30:27;9.27;;;2.67;;
61806;SDS011;47726;52.766;6.606;2022-12-26T10:33:00;13.63;;;2.90;;
61806;SDS011;47726;52.766;6.606;2022-12-26T10:35:31;13.60;;;3.05;;
61806;SDS011;47726;52.766;6.606;2022-12-26T10:38:39;13.35;;;3.45;;
61806;SDS011;47726;52.766;6.606;2022-12-26T10:41:08;14.38;;;2.90;;
61806;SDS011;47726;52.766;6.606;2022-12-26T10:43:38;14.40;;;3.38;;
61806;SDS011;47726;52.766;6.606;2022-12-26T10:48:37;12.77;;;2.60;;
61806;SDS011;47726;52.766;6.606;2022-12-26T10:51:03;14.23;;;3.00;;
61806;SDS011;47726;52.766;6.606;2022-12-26T10:53:29;11.57;;;2.75;;
61806;SDS011;47726;52.766;6.606;2022-12-26T10:55:55;11.48;;;2.60;;
61806;SDS011;47726;52.766;6.606;2022-12-26T10:58:28;12.07;;;2.53;;
61806;SDS011;47726;52.766;6.606;2022-12-26T11:04:02;12.65;;;2.30;;
61806;SDS011;47726;52.766;6.606;2022-12-26T11:06:30;9.43;;;2.10;;
61806;SDS011;47726;52.766;6.606;2022-12-26T11:09:00;10.23;;;2.30;;
61806;SDS011;47726;52.766;6.606;2022-12-26T11:11:30;11.60;;;2.20;;
61806;SDS011;47726;52.766;6.606;2022-12-26T11:16:53;10.63;;;2.30;;
61806;SDS011;47726;52.766;6.606;2022-12-26T11:19:29;10.20;;;2.45;;
61806;SDS011;47726;52.766;6.606;2022-12-26T11:27:52;14.35;;;2.70;;
61806;SDS011;47726;52.766;6.606;2022-12-26T11:30:32;9.57;;;2.17;;
61806;SDS011;47726;52.766;6.606;2022-12-26T11:33:03;8.77;;;2.50;;
61806;SDS011;47726;52.766;6.606;2022-12-26T11:35:44;10.38;;;2.70;;
61806;SDS011;47726;52.766;6.606;2022-12-26T11:38:14;8.88;;;2.20;;
61806;SDS011;47726;52.766;6.606;2022-12-26T11:40:59;11.73;;;2.53;;
61806;SDS011;47726;52.766;6.606;2022-12-26T11:43:48;13.57;;;2.30;;
61806;SDS011;47726;52.766;6.606;2022-12-26T11:46:15;13.57;;;2.70;;
61806;SDS011;47726;52.766;6.606;2022-12-26T11:48:41;9.75;;;2.15;;
61806;SDS011;47726;52.766;6.606;2022-12-26T11:53:39;12.05;;;2.70;;
61806;SDS011;47726;52.766;6.606;2022-12-26T11:56:05;16.02;;;2.80;;
61806;SDS011;47726;52.766;6.606;2022-12-26T11:58:32;14.18;;;2.83;;
61806;SDS011;47726;52.766;6.606;2022-12-26T12:06:00;14.27;;;3.28;;
61806;SDS011;47726;52.766;6.606;2022-12-26T12:25:21;14.07;;;3.00;;
61806;SDS011;47726;52.766;6.606;2022-12-26T12:28:08;12.88;;;2.95;;
61806;SDS011;47726;52.766;6.606;2022-12-26T12:33:32;13.90;;;3.35;;
61806;SDS011;47726;52.766;6.606;2022-12-26T12:43:57;15.38;;;3.00;;
61806;SDS011;47726;52.766;6.606;2022-12-26T12:46:49;10.95;;;2.80;;
61806;SDS011;47726;52.766;6.606;2022-12-26T12:57:23;13.90;;;2.95;;
61806;SDS011;47726;52.766;6.606;2022-12-26T13:10:46;18.52;;;3.40;;
61806;SDS011;47726;52.766;6.606;2022-12-26T13:13:33;16.80;;;3.35;;
61806;SDS011;47726;52.766;6.606;2022-12-26T13:16:10;15.10;;;3.88;;
61806;SDS011;47726;52.766;6.606;2022-12-26T13:18:39;14.50;;;2.90;;
61806;SDS011;47726;52.766;6.606;2022-12-26T13:21:15;16.38;;;3.60;;
61806;SDS011;47726;52.766;6.606;2022-12-26T13:26:28;19.58;;;3.40;;
61806;SDS011;47726;52.766;6.606;2022-12-26T13:29:01;18.35;;;3.40;;
61806;SDS011;47726;52.766;6.606;2022-12-26T13:31:37;15.45;;;3.30;;
61806;SDS011;47726;52.766;6.606;2022-12-26T13:34:07;15.18;;;3.42;;
61806;SDS011;47726;52.766;6.606;2022-12-26T13:44:28;16.38;;;3.03;;
61806;SDS011;47726;52.766;6.606;2022-12-26T13:46:54;14.27;;;3.13;;
61806;SDS011;47726;52.766;6.606;2022-12-26T13:49:35;13.02;;;2.67;;
61806;SDS011;47726;52.766;6.606;2022-12-26T13:54:35;14.35;;;3.13;;
61806;SDS011;47726;52.766;6.606;2022-12-26T14:02:47;12.55;;;2.80;;
61806;SDS011;47726;52.766;6.606;2022-12-26T14:08:26;14.15;;;2.92;;
61806;SDS011;47726;52.766;6.606;2022-12-26T14:14:10;12.88;;;3.13;;
61806;SDS011;47726;52.766;6.606;2022-12-26T14:17:05;11.65;;;3.05;;
61806;SDS011;47726;52.766;6.606;2022-12-26T14:20:11;12.93;;;3.10;;
61806;SDS011;47726;52.766;6.606;2022-12-26T14:28:13;13.20;;;3.28;;
61806;SDS011;47726;52.766;6.606;2022-12-26T14:33:34;13.73;;;3.20;;
61806;SDS011;47726;52.766;6.606;2022-12-26T14:44:51;11.55;;;3.00;;
61806;SDS011;47726;52.766;6.606;2022-12-26T14:55:47;12.80;;;3.20;;
61806;SDS011;47726;52.766;6.606;2022-12-26T15:15:05;14.15;;;2.90;;
61806;SDS011;47726;52.766;6.606;2022-12-26T15:17:47;12.90;;;3.00;;
61806;SDS011;47726;52.766;6.606;2022-12-26T15:31:18;14.98;;;3.38;;
61806;SDS011;47726;52.766;6.606;2022-12-26T15:36:55;12.38;;;2.90;;
61806;SDS011;47726;52.766;6.606;2022-12-26T15:42:25;14.32;;;2.83;;
61806;SDS011;47726;52.766;6.606;2022-12-26T15:58:31;11.32;;;3.00;;
61806;SDS011;47726;52.766;6.606;2022-12-26T16:04:24;10.20;;;2.80;;
61806;SDS011;47726;52.766;6.606;2022-12-26T16:07:07;17.40;;;2.97;;
61806;SDS011;47726;52.766;6.606;2022-12-26T16:12:19;11.55;;;2.70;;
61806;SDS011;47726;52.766;6.606;2022-12-26T16:14:57;13.35;;;2.88;;
61806;SDS011;47726;52.766;6.606;2022-12-26T16:17:26;10.60;;;3.17;;
61806;SDS011;47726;52.766;6.606;2022-12-26T16:19:52;12.88;;;2.70;;
61806;SDS011;47726;52.766;6.606;2022-12-26T16:25:16;13.35;;;3.00;;
61806;SDS011;47726;52.766;6.606;2022-12-26T16:27:48;14.25;;;3.30;;
61806;SDS011;47726;52.766;6.606;2022-12-26T16:30:21;8.35;;;2.88;;
61806;SDS011;47726;52.766;6.606;2022-12-26T16:32:49;8.27;;;2.63;;
61806;SDS011;47726;52.766;6.606;2022-12-26T16:37:53;10.90;;;3.08;;
61806;SDS011;47726;52.766;6.606;2022-12-26T16:40:26;11.52;;;3.00;;
61806;SDS011;47726;52.766;6.606;2022-12-26T16:43:21;13.63;;;2.78;;
61806;SDS011;47726;52.766;6.606;2022-12-26T16:45:54;10.73;;;2.80;;
61806;SDS011;47726;52.766;6.606;2022-12-26T16:48:25;12.80;;;2.72;;
61806;SDS011;47726;52.766;6.606;2022-12-26T16:50:56;12.10;;;2.83;;
61806;SDS011;47726;52.766;6.606;2022-12-26T16:59:12;16.20;;;2.90;;
61806;SDS011;47726;52.766;6.606;2022-12-26T17:01:39;10.48;;;2.80;;
61806;SDS011;47726;52.766;6.606;2022-12-26T17:04:06;11.85;;;2.88;;
61806;SDS011;47726;52.766;6.606;2022-12-26T17:06:45;12.07;;;3.13;;
61806;SDS011;47726;52.766;6.606;2022-12-26T17:09:37;11.75;;;3.30;;
61806;SDS011;47726;52.766;6.606;2022-12-26T17:12:06;11.30;;;3.17;;
61806;SDS011;47726;52.766;6.606;2022-12-26T17:14:41;11.35;;;3.10;;
61806;SDS011;47726;52.766;6.606;2022-12-26T17:19:45;11.13;;;3.00;;
61806;SDS011;47726;52.766;6.606;2022-12-26T17:24:45;13.50;;;3.03;;
61806;SDS011;47726;52.766;6.606;2022-12-26T17:27:17;11.80;;;3.25;;
61806;SDS011;47726;52.766;6.606;2022-12-26T17:32:31;9.98;;;2.85;;
61806;SDS011;47726;52.766;6.606;2022-12-26T17:34:58;11.93;;;2.90;;
61806;SDS011;47726;52.766;6.606;2022-12-26T17:37:26;11.63;;;2.85;;
61806;SDS011;47726;52.766;6.606;2022-12-26T17:39:59;12.32;;;3.10;;
61806;SDS011;47726;52.766;6.606;2022-12-26T17:45:36;10.15;;;3.05;;
61806;SDS011;47726;52.766;6.606;2022-12-26T17:48:04;12.65;;;3.50;;
61806;SDS011;47726;52.766;6.606;2022-12-26T17:50:35;12.43;;;3.03;;
61806;SDS011;47726;52.766;6.606;2022-12-26T17:55:56;16.48;;;3.40;;
61806;SDS011;47726;52.766;6.606;2022-12-26T17:58:27;11.77;;;3.50;;
61806;SDS011;47726;52.766;6.606;2022-12-26T18:00:53;12.52;;;3.00;;
61806;SDS011;47726;52.766;6.606;2022-12-26T18:03:20;10.00;;;3.13;;
61806;SDS011;47726;52.766;6.606;2022-12-26T18:05:46;11.75;;;3.20;;
61806;SDS011;47726;52.766;6.606;2022-12-26T18:08:21;9.70;;;3.10;;
61806;SDS011;47726;52.766;6.606;2022-12-26T18:11:02;11.13;;;3.10;;
61806;SDS011;47726;52.766;6.606;2022-12-26T18:13:32;11.85;;;3.28;;
61806;SDS011;47726;52.766;6.606;2022-12-26T18:15:58;9.13;;;3.38;;
61806;SDS011;47726;52.766;6.606;2022-12-26T18:18:27;11.30;;;2.80;;
61806;SDS011;47726;52.766;6.606;2022-12-26T18:21:03;8.23;;;3.00;;
61806;SDS011;47726;52.766;6.606;2022-12-26T18:23:32;10.18;;;3.17;;
61806;SDS011;47726;52.766;6.606;2022-12-26T18:25:59;10.88;;;3.10;;
61806;SDS011;47726;52.766;6.606;2022-12-26T18:28:26;8.88;;;3.13;;
61806;SDS011;47726;52.766;6.606;2022-12-26T18:30:52;9.13;;;2.90;;
61806;SDS011;47726;52.766;6.606;2022-12-26T18:33:19;9.13;;;2.88;;
61806;SDS011;47726;52.766;6.606;2022-12-26T18:35:45;11.85;;;3.42;;
61806;SDS011;47726;52.766;6.606;2022-12-26T18:38:15;8.32;;;3.17;;
61806;SDS011;47726;52.766;6.606;2022-12-26T18:40:44;8.37;;;2.90;;
61806;SDS011;47726;52.766;6.606;2022-12-26T18:43:11;9.45;;;3.00;;
61806;SDS011;47726;52.766;6.606;2022-12-26T18:45:37;8.50;;;3.03;;
61806;SDS011;47726;52.766;6.606;2022-12-26T18:48:05;12.70;;;3.22;;
61806;SDS011;47726;52.766;6.606;2022-12-26T18:50:35;11.65;;;3.53;;
61806;SDS011;47726;52.766;6.606;2022-12-26T18:53:03;9.75;;;3.05;;
61806;SDS011;47726;52.766;6.606;2022-12-26T18:55:29;12.52;;;3.70;;
61806;SDS011;47726;52.766;6.606;2022-12-26T18:57:55;14.93;;;3.75;;
61806;SDS011;47726;52.766;6.606;2022-12-26T19:00:21;12.20;;;3.17;;
61806;SDS011;47726;52.766;6.606;2022-12-26T19:02:47;14.13;;;3.53;;
61806;SDS011;47726;52.766;6.606;2022-12-26T19:05:18;10.60;;;3.28;;
61806;SDS011;47726;52.766;6.606;2022-12-26T19:07:46;11.30;;;3.20;;
61806;SDS011;47726;52.766;6.606;2022-12-26T19:10:15;8.80;;;3.17;;
61806;SDS011;47726;52.766;6.606;2022-12-26T19:12:42;8.95;;;3.13;;
61806;SDS011;47726;52.766;6.606;2022-12-26T19:15:08;12.10;;;3.40;;
61806;SDS011;47726;52.766;6.606;2022-12-26T19:17:34;13.18;;;3.78;;
61806;SDS011;47726;52.766;6.606;2022-12-26T19:20:00;10.90;;;3.97;;
61806;SDS011;47726;52.766;6.606;2022-12-26T19:22:26;11.20;;;3.22;;
61806;SDS011;47726;52.766;6.606;2022-12-26T19:24:52;10.30;;;3.22;;
61806;SDS011;47726;52.766;6.606;2022-12-26T19:27:18;8.93;;;3.65;;